Time;durP1;ratioP1;P1;durP2;ratioP2;P2;SDS_P1;SDS_P2;PMS_P1;PMS_P2;Temp;Humidity;BMP_temperature;BMP_pressure;BME280_temperature;BME280_humidity;BME280_pressure;Samples;Min_cycle;Max_cycle;Signal;HPM_P1;HPM_P2
2021/12/02 00:01:19;;;;;;;1.33;1.00;;;5.50;99.90;;;;;;5043252;28;20021;-92
2021/12/02 00:03:47;;;;;;;1.80;0.93;;;5.50;99.90;;;;;;5035506;28;20037;-92
2021/12/02 00:06:15;;;;;;;0.80;0.80;;;5.40;99.90;;;;;;5035132;28;20029;-92
2021/12/02 00:08:41;;;;;;;1.00;0.82;;;5.40;99.90;;;;;;5036662;28;20183;-93
2021/12/02 00:11:07;;;;;;;1.00;0.90;;;5.40;99.90;;;;;;5035010;28;20056;-92
2021/12/02 00:14:09;;;;;;;1.30;1.20;;;5.30;99.90;;;;;;5036310;28;20021;-92
2021/12/02 00:21:50;;;;;;;1.45;1.20;;;5.30;99.90;;;;;;5049641;28;20031;-92
2021/12/02 00:24:20;;;;;;;2.22;1.42;;;5.30;99.90;;;;;;5046127;28;20037;-92
2021/12/02 00:26:51;;;;;;;4.93;1.23;;;5.30;99.90;;;;;;5050444;28;20094;-92
2021/12/02 00:29:19;;;;;;;3.53;2.13;;;5.30;99.90;;;;;;5044337;28;20452;-91
2021/12/02 00:31:46;;;;;;;1.77;1.58;;;5.30;99.90;;;;;;5050659;28;20639;-92
2021/12/02 00:34:12;;;;;;;1.30;1.20;;;5.30;99.90;;;;;;5036458;28;20040;-92
2021/12/02 00:36:39;;;;;;;1.60;1.17;;;5.30;99.90;;;;;;5038789;28;20025;-93
2021/12/02 00:39:17;;;;;;;3.22;1.63;;;5.30;99.90;;;;;;5037485;28;20602;-93
2021/12/02 00:41:43;;;;;;;1.60;1.30;;;5.30;99.90;;;;;;5027662;28;20025;-92
2021/12/02 00:44:10;;;;;;;1.75;1.20;;;5.40;99.90;;;;;;5035425;28;20024;-92
2021/12/02 00:46:36;;;;;;;3.00;1.35;;;5.40;99.90;;;;;;5044205;28;20031;-93
2021/12/02 00:49:07;;;;;;;2.25;1.80;;;5.40;99.90;;;;;;5030744;28;20058;-92
2021/12/02 00:51:35;;;;;;;2.42;1.58;;;5.40;99.90;;;;;;5048516;28;20115;-93
2021/12/02 00:54:07;;;;;;;2.67;1.38;;;5.50;99.90;;;;;;5035963;28;20045;-92
2021/12/02 00:56:33;;;;;;;2.90;1.30;;;5.50;99.90;;;;;;5040750;28;20417;-93
2021/12/02 00:58:59;;;;;;;3.95;1.80;;;5.50;99.90;;;;;;5060786;28;20053;-95
2021/12/02 01:01:27;;;;;;;1.75;1.33;;;5.60;99.90;;;;;;5044402;28;20044;-92
2021/12/02 01:03:58;;;;;;;1.48;1.30;;;5.60;99.90;;;;;;5034259;28;20737;-92
2021/12/02 01:06:24;;;;;;;2.00;1.50;;;5.60;99.90;;;;;;5043126;28;20121;-92
2021/12/02 01:08:50;;;;;;;2.75;1.55;;;5.60;99.90;;;;;;5034072;28;20071;-91
2021/12/02 01:11:17;;;;;;;2.00;1.40;;;5.60;99.90;;;;;;5033972;28;20021;-92
2021/12/02 01:13:44;;;;;;;10.40;2.85;;;5.60;99.90;;;;;;5028838;28;20104;-91
2021/12/02 01:16:09;;;;;;;2.25;1.30;;;5.70;99.90;;;;;;5033743;28;20018;-92
2021/12/02 01:18:35;;;;;;;1.50;1.20;;;5.70;99.90;;;;;;5034025;28;20033;-92
2021/12/02 01:21:03;;;;;;;1.67;1.17;;;5.70;99.90;;;;;;5037919;28;20048;-92
2021/12/02 01:23:31;;;;;;;2.88;1.13;;;5.70;99.90;;;;;;5033579;28;20460;-92
2021/12/02 01:26:04;;;;;;;0.70;0.70;;;5.60;99.90;;;;;;5040177;28;20441;-91
2021/12/02 01:28:33;;;;;;;0.88;0.75;;;5.50;99.90;;;;;;5044560;28;20448;-91
2021/12/02 01:30:59;;;;;;;0.68;0.68;;;5.40;99.90;;;;;;5034066;28;20017;-90
2021/12/02 01:33:27;;;;;;;0.93;0.73;;;5.20;99.90;;;;;;5033933;28;20070;-91
2021/12/02 01:36:01;;;;;;;0.85;0.60;;;5.10;99.90;;;;;;5060151;28;20695;-90
2021/12/02 01:38:29;;;;;;;0.85;0.68;;;5.10;99.90;;;;;;5046913;28;20021;-91
2021/12/02 01:40:56;;;;;;;1.02;0.95;;;5.00;99.90;;;;;;5033486;28;20480;-90
2021/12/02 01:43:42;;;;;;;1.13;1.00;;;4.90;99.90;;;;;;5034112;28;20492;-90
2021/12/02 01:46:08;;;;;;;2.72;1.08;;;4.90;99.90;;;;;;5040970;28;20028;-92
2021/12/02 01:48:38;;;;;;;0.90;0.90;;;4.80;99.90;;;;;;5055610;28;20021;-92
2021/12/02 01:51:07;;;;;;;7.20;0.88;;;4.80;99.90;;;;;;5034342;28;20029;-91
2021/12/02 01:53:38;;;;;;;3.42;0.90;;;4.70;99.90;;;;;;5037328;28;20043;-91
2021/12/02 01:56:12;;;;;;;3.85;1.20;;;4.70;99.90;;;;;;5037611;28;20025;-91
2021/12/02 01:58:43;;;;;;;0.90;0.90;;;4.70;99.90;;;;;;5038764;28;20108;-91
2021/12/02 02:01:19;;;;;;;3.00;1.00;;;4.80;99.90;;;;;;5059898;28;20400;-91
2021/12/02 02:03:45;;;;;;;1.15;0.80;;;4.70;99.90;;;;;;5037660;28;20439;-92
2021/12/02 02:06:13;;;;;;;1.10;0.88;;;4.70;99.90;;;;;;5055035;28;20032;-91
2021/12/02 02:08:43;;;;;;;0.93;0.82;;;4.70;99.90;;;;;;5037287;28;20025;-91
2021/12/02 02:11:09;;;;;;;1.67;1.20;;;4.70;99.90;;;;;;5034393;28;20362;-92
2021/12/02 02:13:35;;;;;;;1.00;0.90;;;4.70;99.90;;;;;;5043625;28;20070;-92
2021/12/02 02:16:01;;;;;;;2.22;1.00;;;4.80;99.90;;;;;;5037293;28;20021;-91
2021/12/02 02:18:27;;;;;;;4.47;1.42;;;4.80;99.90;;;;;;5037075;28;20021;-91
2021/12/02 02:21:07;;;;;;;1.65;1.10;;;4.80;99.90;;;;;;5056815;28;20028;-90
2021/12/02 02:23:38;;;;;;;2.03;1.17;;;4.80;99.90;;;;;;5021684;28;20072;-91
2021/12/02 02:26:05;;;;;;;1.98;1.10;;;4.80;99.90;;;;;;5036932;28;20112;-91
2021/12/02 02:28:31;;;;;;;3.40;1.20;;;4.90;99.90;;;;;;5037132;28;20021;-90
2021/12/02 02:30:57;;;;;;;3.72;1.08;;;4.90;99.90;;;;;;5036511;28;20079;-92
2021/12/02 02:33:23;;;;;;;1.75;1.10;;;4.90;99.90;;;;;;5054034;28;20033;-91
2021/12/02 02:35:49;;;;;;;2.95;1.20;;;4.90;99.90;;;;;;5036744;28;20108;-92
2021/12/02 02:38:15;;;;;;;1.98;1.00;;;4.90;99.90;;;;;;5036333;28;20120;-91
2021/12/02 02:40:45;;;;;;;1.95;1.15;;;4.90;99.90;;;;;;5037062;28;20078;-91
2021/12/02 02:43:19;;;;;;;3.80;1.00;;;4.90;99.90;;;;;;5036926;28;20056;-92
2021/12/02 02:45:44;;;;;;;1.17;1.08;;;4.90;99.90;;;;;;5036881;28;20120;-91
2021/12/02 02:48:10;;;;;;;3.08;1.10;;;4.90;99.90;;;;;;5036441;28;20508;-90
2021/12/02 02:50:36;;;;;;;5.43;1.10;;;4.80;99.90;;;;;;5063021;28;20078;-90
2021/12/02 02:53:09;;;;;;;1.02;0.80;;;4.90;99.90;;;;;;5056198;28;20042;-92
2021/12/02 02:55:35;;;;;;;3.20;1.50;;;4.80;99.90;;;;;;5061066;28;20485;-91
2021/12/02 02:58:09;;;;;;;2.22;1.10;;;4.80;99.90;;;;;;5036661;28;20037;-93
2021/12/02 03:00:40;;;;;;;1.98;1.10;;;4.80;99.90;;;;;;5054490;28;20412;-92
2021/12/02 03:06:26;;;;;;;1.48;1.00;;;4.70;99.90;;;;;;5052846;28;20028;-92
2021/12/02 03:08:44;;;;;;;2.72;1.10;;;4.70;99.90;;;;;;5054717;28;20029;-91
2021/12/02 03:11:12;;;;;;;1.52;1.00;;;4.70;99.90;;;;;;5054007;28;20051;-90
2021/12/02 03:13:47;;;;;;;1.98;1.10;;;4.60;99.90;;;;;;5038593;28;20024;-92
2021/12/02 03:18:57;;;;;;;1.70;1.17;;;4.60;99.90;;;;;;5067490;28;20040;-91
2021/12/02 03:21:24;;;;;;;5.03;1.15;;;4.60;99.90;;;;;;5038749;28;20040;-92
2021/12/02 03:23:58;;;;;;;2.00;1.20;;;4.50;99.90;;;;;;5033047;28;20025;-91
2021/12/02 03:26:25;;;;;;;2.40;1.00;;;4.50;99.90;;;;;;5053457;28;20029;-91
2021/12/02 03:28:52;;;;;;;1.63;1.10;;;4.40;99.90;;;;;;5030934;28;20029;-90
2021/12/02 03:31:19;;;;;;;1.30;1.00;;;4.50;99.90;;;;;;5030815;28;20113;-91
2021/12/02 03:33:45;;;;;;;1.88;1.17;;;4.40;99.90;;;;;;5034463;28;20040;-91
2021/12/02 03:36:12;;;;;;;2.75;1.20;;;4.40;99.90;;;;;;5035605;28;20029;-91
2021/12/02 03:38:38;;;;;;;2.63;1.15;;;4.40;99.90;;;;;;5031611;28;20519;-91
2021/12/02 03:41:04;;;;;;;2.15;0.90;;;4.40;99.90;;;;;;5027213;28;20025;-91
2021/12/02 03:43:37;;;;;;;2.45;1.30;;;4.40;99.90;;;;;;5033921;28;20045;-91
2021/12/02 03:46:04;;;;;;;1.50;1.10;;;4.40;99.90;;;;;;5038521;28;20025;-90
2021/12/02 03:48:30;;;;;;;2.95;1.02;;;4.40;99.90;;;;;;5061863;28;20075;-91
2021/12/02 03:50:55;;;;;;;2.78;1.30;;;4.40;99.90;;;;;;5034971;28;20037;-90
2021/12/02 03:53:21;;;;;;;2.13;1.23;;;4.40;99.90;;;;;;5035386;28;20049;-91
2021/12/02 03:55:47;;;;;;;1.75;1.08;;;4.40;99.90;;;;;;5035143;28;20119;-91
2021/12/02 03:58:12;;;;;;;1.45;1.13;;;4.40;99.90;;;;;;5036266;28;20048;-91
2021/12/02 04:00:38;;;;;;;2.20;1.17;;;4.40;99.90;;;;;;5047135;28;20037;-91
2021/12/02 04:03:04;;;;;;;1.60;1.30;;;4.40;99.90;;;;;;5050973;28;20621;-91
2021/12/02 04:05:29;;;;;;;2.92;1.52;;;4.40;99.90;;;;;;5040482;28;20107;-91
2021/12/02 04:07:55;;;;;;;2.13;1.50;;;4.40;99.90;;;;;;5068407;28;20112;-90
2021/12/02 04:10:22;;;;;;;2.10;1.35;;;4.40;99.90;;;;;;5057759;28;20053;-91
2021/12/02 04:12:55;;;;;;;3.25;1.40;;;4.40;99.90;;;;;;5054944;28;20024;-91
2021/12/02 04:15:28;;;;;;;4.13;1.63;;;4.40;99.90;;;;;;5032235;28;20199;-91
2021/12/02 04:17:54;;;;;;;1.40;1.30;;;4.40;99.90;;;;;;5039962;28;20025;-90
2021/12/02 04:20:23;;;;;;;2.17;1.40;;;4.30;99.90;;;;;;5034580;28;20454;-92
2021/12/02 04:22:50;;;;;;;2.10;1.38;;;4.30;99.90;;;;;;5042679;28;20123;-91
2021/12/02 04:25:16;;;;;;;1.60;1.30;;;4.30;99.90;;;;;;5042380;28;20047;-90
2021/12/02 04:27:46;;;;;;;1.70;1.30;;;4.30;99.90;;;;;;5033598;28;20032;-92
2021/12/02 04:30:16;;;;;;;1.92;1.60;;;4.30;99.90;;;;;;5040960;28;20033;-91
2021/12/02 04:32:42;;;;;;;4.80;2.65;;;4.30;99.90;;;;;;5035256;28;20500;-92
2021/12/02 04:35:10;;;;;;;5.00;2.33;;;4.30;99.90;;;;;;5036696;28;20128;-90
2021/12/02 04:37:35;;;;;;;3.28;1.90;;;4.20;99.90;;;;;;5038725;28;20037;-92
2021/12/02 04:40:01;;;;;;;2.70;1.90;;;4.20;99.90;;;;;;5042661;28;20838;-92
2021/12/02 04:42:27;;;;;;;4.95;1.60;;;4.10;99.90;;;;;;5042234;28;20029;-92
2021/12/02 04:44:52;;;;;;;1.45;1.30;;;4.10;99.90;;;;;;5034948;28;20523;-92
2021/12/02 04:47:18;;;;;;;1.92;1.40;;;4.10;99.90;;;;;;5042747;28;20021;-92
2021/12/02 04:49:44;;;;;;;1.48;1.30;;;4.10;99.90;;;;;;5058903;28;20584;-92
2021/12/02 04:52:10;;;;;;;4.03;1.60;;;4.00;99.90;;;;;;5056169;28;20031;-91
2021/12/02 04:54:36;;;;;;;2.33;1.45;;;4.00;99.90;;;;;;5044658;28;20497;-91
2021/12/02 04:57:02;;;;;;;1.80;1.17;;;4.00;99.90;;;;;;5034166;28;20071;-91
2021/12/02 04:59:28;;;;;;;3.45;1.75;;;4.00;99.90;;;;;;5037927;28;20048;-91
2021/12/02 05:01:54;;;;;;;4.18;2.72;;;3.90;99.90;;;;;;5034158;28;20052;-92
2021/12/02 05:04:19;;;;;;;3.35;1.70;;;3.90;99.90;;;;;;5052446;28;20017;-91
2021/12/02 05:06:46;;;;;;;3.75;1.67;;;3.90;99.90;;;;;;5032162;28;20508;-92
2021/12/02 05:09:12;;;;;;;5.00;1.48;;;4.00;99.90;;;;;;5047824;28;20045;-91
2021/12/02 05:11:38;;;;;;;3.53;1.73;;;4.00;99.90;;;;;;5034087;28;20053;-92
2021/12/02 05:14:05;;;;;;;5.03;1.30;;;4.00;99.90;;;;;;5034221;28;20017;-92
2021/12/02 05:16:31;;;;;;;2.15;1.27;;;4.10;99.90;;;;;;5053266;28;20136;-91
2021/12/02 05:18:56;;;;;;;2.92;1.27;;;4.10;99.90;;;;;;5042952;28;20060;-91
2021/12/02 05:21:22;;;;;;;2.63;1.30;;;4.10;99.90;;;;;;5051989;28;20087;-91
2021/12/02 05:23:53;;;;;;;8.20;2.70;;;4.10;99.90;;;;;;5034173;28;20032;-92
2021/12/02 05:26:19;;;;;;;1.83;1.20;;;4.10;99.90;;;;;;5056344;28;20039;-92
2021/12/02 05:28:44;;;;;;;2.53;1.40;;;4.10;99.90;;;;;;5031098;28;20025;-91
2021/12/02 05:31:10;;;;;;;3.05;1.33;;;4.10;99.90;;;;;;5046769;28;20032;-91
2021/12/02 05:33:35;;;;;;;5.97;1.85;;;4.10;99.90;;;;;;5056786;28;20033;-92
2021/12/02 05:36:01;;;;;;;2.15;1.40;;;4.00;99.90;;;;;;5034008;28;20032;-92
2021/12/02 05:38:27;;;;;;;2.83;1.40;;;4.00;99.90;;;;;;5033248;28;20021;-92
2021/12/02 05:40:52;;;;;;;2.20;1.42;;;3.90;99.90;;;;;;5033243;28;20059;-92
2021/12/02 05:43:18;;;;;;;2.83;2.00;;;4.00;99.90;;;;;;5033706;28;20025;-90
2021/12/02 05:45:44;;;;;;;4.53;2.60;;;3.90;99.90;;;;;;5031879;28;20112;-92
2021/12/02 05:48:09;;;;;;;3.08;1.80;;;3.90;99.90;;;;;;5033338;28;20378;-91
2021/12/02 05:50:36;;;;;;;4.13;1.73;;;3.90;99.90;;;;;;5041067;28;20052;-93
2021/12/02 05:53:01;;;;;;;3.35;1.98;;;3.90;99.90;;;;;;5039954;28;20451;-92
2021/12/02 05:55:27;;;;;;;3.35;1.80;;;3.90;99.90;;;;;;5038469;28;20091;-92
2021/12/02 05:57:53;;;;;;;4.65;2.17;;;3.90;99.90;;;;;;5041300;28;20025;-90
2021/12/02 06:00:18;;;;;;;6.03;2.22;;;3.90;99.90;;;;;;5043654;28;20029;-91
2021/12/02 06:02:45;;;;;;;5.25;1.90;;;3.90;99.90;;;;;;5060047;28;20085;-91
2021/12/02 06:05:16;;;;;;;4.35;1.73;;;3.80;99.90;;;;;;5041045;28;20029;-91
2021/12/02 06:07:43;;;;;;;3.33;2.05;;;3.90;99.90;;;;;;5039889;28;20382;-91
2021/12/02 06:10:09;;;;;;;2.92;2.63;;;3.90;99.90;;;;;;5032574;28;20022;-91
2021/12/02 06:12:34;;;;;;;2.28;1.77;;;3.80;99.90;;;;;;5057399;28;20032;-92
2021/12/02 06:15:00;;;;;;;7.63;3.78;;;3.80;99.90;;;;;;5029995;28;20080;-91
2021/12/02 06:17:26;;;;;;;2.72;1.60;;;3.90;99.90;;;;;;5032461;28;20408;-92
2021/12/02 06:19:51;;;;;;;8.88;1.85;;;3.80;99.90;;;;;;5032973;28;20529;-91
2021/12/02 06:22:17;;;;;;;3.08;1.60;;;3.80;99.90;;;;;;5033425;28;20021;-91
2021/12/02 06:24:44;;;;;;;2.03;1.40;;;3.90;99.90;;;;;;5037288;28;20530;-91
2021/12/02 06:27:10;;;;;;;8.30;1.95;;;3.80;99.90;;;;;;5038372;28;20071;-91
2021/12/02 06:29:37;;;;;;;2.72;1.60;;;3.90;99.90;;;;;;5047414;28;20037;-91
2021/12/02 06:32:04;;;;;;;4.38;1.58;;;3.90;99.90;;;;;;5033006;28;20029;-89
2021/12/02 06:34:31;;;;;;;4.55;1.75;;;3.80;99.90;;;;;;5051300;28;20072;-91
2021/12/02 06:36:57;;;;;;;6.47;1.90;;;3.90;99.90;;;;;;5032965;28;20501;-91
2021/12/02 06:39:22;;;;;;;12.40;3.97;;;3.90;99.90;;;;;;5034993;28;20025;-92
2021/12/02 06:41:48;;;;;;;1.83;1.27;;;3.90;99.90;;;;;;5036631;28;20025;-91
2021/12/02 06:44:13;;;;;;;3.78;2.00;;;3.90;99.90;;;;;;5056696;28;20036;-92
2021/12/02 06:46:39;;;;;;;3.85;1.55;;;3.90;99.90;;;;;;5064332;28;20057;-91
2021/12/02 06:49:05;;;;;;;5.82;2.45;;;3.90;99.90;;;;;;5033218;28;20700;-92
2021/12/02 06:51:31;;;;;;;4.45;2.55;;;3.80;99.90;;;;;;5029998;28;20037;-91
2021/12/02 06:53:57;;;;;;;4.97;2.60;;;3.80;99.90;;;;;;5037067;28;20030;-92
2021/12/02 06:56:23;;;;;;;5.60;2.35;;;3.80;99.90;;;;;;5036415;28;20040;-92
2021/12/02 06:58:49;;;;;;;4.60;2.33;;;3.80;99.90;;;;;;5036971;28;20488;-92
2021/12/02 07:01:14;;;;;;;5.78;2.83;;;3.80;99.90;;;;;;5042820;28;20017;-92
2021/12/02 07:03:40;;;;;;;6.93;2.05;;;3.80;99.90;;;;;;5054957;28;20108;-91
2021/12/02 07:06:06;;;;;;;5.15;1.77;;;3.80;99.90;;;;;;5033313;28;20571;-90
2021/12/02 07:08:32;;;;;;;6.22;2.22;;;3.80;99.90;;;;;;5042492;28;20493;-92
2021/12/02 07:10:59;;;;;;;6.70;2.22;;;3.80;99.90;;;;;;5040476;28;20074;-92
2021/12/02 07:13:25;;;;;;;3.33;2.67;;;3.70;99.90;;;;;;5042457;28;20025;-91
2021/12/02 07:15:52;;;;;;;4.78;2.70;;;3.70;99.90;;;;;;5035969;28;20025;-90
2021/12/02 07:18:18;;;;;;;4.97;3.08;;;3.80;99.90;;;;;;5036321;28;20086;-91
2021/12/02 07:20:47;;;;;;;4.25;2.50;;;3.70;99.90;;;;;;5037581;28;20108;-91
2021/12/02 07:23:14;;;;;;;3.92;2.25;;;3.80;99.90;;;;;;5035127;28;20024;-92
2021/12/02 07:25:40;;;;;;;5.65;2.40;;;3.80;99.90;;;;;;5046215;28;20052;-91
2021/12/02 07:28:09;;;;;;;4.80;2.50;;;3.80;99.90;;;;;;5037824;28;20040;-91
2021/12/02 07:30:34;;;;;;;3.88;2.40;;;3.80;99.90;;;;;;5044754;28;20139;-91
2021/12/02 07:33:02;;;;;;;5.40;2.00;;;3.80;99.90;;;;;;5050925;28;20385;-91
2021/12/02 07:35:28;;;;;;;6.53;2.38;;;3.80;99.90;;;;;;5035927;28;20029;-91
2021/12/02 07:37:57;;;;;;;4.95;2.17;;;3.80;99.90;;;;;;5035814;28;20032;-90
2021/12/02 07:40:24;;;;;;;9.05;2.05;;;3.90;99.90;;;;;;5045554;28;20362;-90
2021/12/02 07:42:54;;;;;;;3.72;1.58;;;3.80;99.90;;;;;;5053615;28;20029;-92
2021/12/02 07:45:23;;;;;;;4.40;1.95;;;3.90;99.90;;;;;;5058280;28;20028;-92
2021/12/02 07:47:49;;;;;;;3.85;1.80;;;3.80;99.90;;;;;;5034130;28;20025;-92
2021/12/02 07:50:16;;;;;;;5.68;2.20;;;3.80;99.90;;;;;;5052764;28;20035;-92
2021/12/02 07:52:58;;;;;;;4.72;1.65;;;3.80;99.90;;;;;;5032773;28;20030;-91
2021/12/02 07:55:24;;;;;;;6.28;2.50;;;3.90;99.90;;;;;;5035739;28;20037;-91
2021/12/02 07:57:51;;;;;;;4.72;2.60;;;3.90;99.90;;;;;;5053410;28;20033;-91
2021/12/02 08:00:23;;;;;;;2.85;1.98;;;3.90;99.90;;;;;;5035066;28;20048;-90
2021/12/02 08:02:51;;;;;;;3.70;1.88;;;3.90;99.90;;;;;;5028188;28;20040;-92
2021/12/02 08:05:18;;;;;;;4.95;1.70;;;3.80;99.90;;;;;;5035645;28;20078;-91
2021/12/02 08:07:44;;;;;;;2.97;1.30;;;3.80;99.90;;;;;;5034143;28;20025;-92
2021/12/02 08:10:12;;;;;;;1.83;1.25;;;3.80;99.90;;;;;;5053232;28;20040;-91
2021/12/02 08:12:40;;;;;;;5.10;1.50;;;3.70;99.90;;;;;;5036104;28;20113;-93
2021/12/02 08:15:08;;;;;;;3.85;1.52;;;3.70;99.90;;;;;;5038624;28;20515;-91
2021/12/02 08:17:34;;;;;;;2.50;1.55;;;3.60;99.90;;;;;;5040240;28;20033;-92
2021/12/02 08:20:00;;;;;;;3.55;1.95;;;3.60;99.90;;;;;;5026857;28;20029;-92
2021/12/02 08:22:26;;;;;;;1.98;1.17;;;3.60;99.90;;;;;;5036271;28;20078;-91
2021/12/02 08:24:52;;;;;;;2.33;1.30;;;3.60;99.90;;;;;;5053829;28;20124;-90
2021/12/02 08:27:18;;;;;;;1.35;0.95;;;3.70;99.90;;;;;;5024882;28;20029;-91
2021/12/02 08:29:44;;;;;;;2.20;1.15;;;3.70;99.90;;;;;;5036678;28;20063;-92
2021/12/02 08:32:09;;;;;;;1.73;1.33;;;3.70;99.90;;;;;;5034522;28;20114;-91
2021/12/02 08:34:35;;;;;;;1.60;1.10;;;3.70;99.90;;;;;;5035119;28;20037;-91
2021/12/02 08:37:01;;;;;;;10.38;3.15;;;3.60;99.90;;;;;;5034409;28;20044;-91
2021/12/02 08:39:28;;;;;;;2.60;1.20;;;3.60;99.90;;;;;;5032516;28;20061;-92
2021/12/02 08:41:55;;;;;;;1.52;1.15;;;3.50;99.90;;;;;;5026459;28;20612;-91
2021/12/02 08:44:22;;;;;;;4.60;1.80;;;3.40;99.90;;;;;;5036103;28;20021;-91
2021/12/02 08:46:50;;;;;;;3.83;1.75;;;3.30;99.90;;;;;;5034734;28;20064;-91
2021/12/02 08:49:16;;;;;;;2.75;1.25;;;3.20;99.90;;;;;;5034942;28;20091;-91
2021/12/02 08:51:44;;;;;;;4.13;1.75;;;3.10;99.90;;;;;;5034111;28;20033;-92
2021/12/02 08:54:10;;;;;;;4.40;2.13;;;3.00;99.90;;;;;;5048051;28;20029;-90
2021/12/02 08:56:36;;;;;;;2.28;1.30;;;2.90;99.90;;;;;;5036046;28;20400;-92
2021/12/02 08:59:02;;;;;;;3.90;1.73;;;2.90;99.90;;;;;;5048445;28;20082;-91
2021/12/02 09:01:28;;;;;;;2.38;1.65;;;2.90;99.90;;;;;;5041111;28;20025;-90
2021/12/02 09:03:55;;;;;;;2.38;1.40;;;2.90;99.90;;;;;;5035438;28;20113;-92
2021/12/02 09:06:22;;;;;;;1.90;1.60;;;3.00;99.90;;;;;;5037830;28;20104;-91
2021/12/02 09:08:50;;;;;;;2.42;1.15;;;3.10;99.90;;;;;;5058001;28;20033;-91
2021/12/02 09:11:15;;;;;;;2.22;1.60;;;3.10;99.90;;;;;;5042646;28;20025;-91
2021/12/02 09:13:41;;;;;;;2.55;1.40;;;3.00;99.90;;;;;;5037338;28;20023;-90
2021/12/02 09:16:07;;;;;;;1.13;0.90;;;3.00;99.90;;;;;;5053809;28;20054;-91
2021/12/02 09:18:33;;;;;;;1.45;0.75;;;2.90;99.90;;;;;;5037899;28;20036;-91
2021/12/02 09:20:59;;;;;;;1.83;0.90;;;2.90;99.90;;;;;;5033590;28;20108;-91
2021/12/02 09:23:25;;;;;;;6.72;1.40;;;3.00;99.90;;;;;;5033312;28;20025;-92
2021/12/02 09:25:52;;;;;;;2.08;1.00;;;3.00;99.90;;;;;;5033257;28;20028;-89
2021/12/02 09:28:18;;;;;;;4.40;1.25;;;3.00;99.90;;;;;;5031599;28;20628;-90
2021/12/02 09:30:43;;;;;;;1.88;0.88;;;3.00;99.90;;;;;;5046336;28;20131;-91
2021/12/02 09:33:09;;;;;;;2.08;0.88;;;3.00;99.90;;;;;;5034395;28;20120;-91
2021/12/02 09:35:35;;;;;;;3.42;1.70;;;3.00;99.90;;;;;;5038132;28;20039;-91
2021/12/02 09:38:01;;;;;;;4.35;2.20;;;3.00;99.90;;;;;;5051216;28;20025;-91
2021/12/02 09:40:27;;;;;;;2.22;1.58;;;2.90;99.90;;;;;;5030926;28;20024;-91
2021/12/02 09:42:53;;;;;;;2.13;1.55;;;2.80;99.90;;;;;;5032722;28;20029;-90
2021/12/02 09:45:19;;;;;;;5.32;2.33;;;2.90;99.90;;;;;;5040750;28;20065;-90
2021/12/02 09:47:47;;;;;;;2.50;1.30;;;2.90;99.90;;;;;;5039231;28;20035;-92
2021/12/02 09:50:22;;;;;;;2.17;1.58;;;3.00;99.90;;;;;;5046338;28;20043;-91
2021/12/02 09:52:49;;;;;;;4.28;1.92;;;3.20;99.90;;;;;;5034998;28;20511;-92
2021/12/02 09:57:46;;;;;;;2.58;1.40;;;3.40;99.90;;;;;;5052300;28;20033;-91
2021/12/02 10:00:24;;;;;;;3.08;1.75;;;3.40;99.90;;;;;;5051045;28;20104;-91
2021/12/02 10:02:58;;;;;;;2.55;1.65;;;3.50;99.90;;;;;;5033611;28;20112;-91
2021/12/02 10:05:51;;;;;;;5.25;2.10;;;3.30;99.90;;;;;;5029316;28;20048;-91
2021/12/02 10:08:23;;;;;;;2.40;2.03;;;3.10;99.90;;;;;;5055974;28;20036;-90
2021/12/02 10:11:10;;;;;;;3.65;2.13;;;3.00;99.90;;;;;;5034088;28;20381;-91
2021/12/02 10:13:57;;;;;;;2.75;1.85;;;3.10;99.90;;;;;;5035985;28;20667;-91
2021/12/02 10:19:02;;;;;;;2.13;1.58;;;3.30;99.90;;;;;;5043490;28;20017;-91
2021/12/02 10:24:12;;;;;;;1.75;1.30;;;3.60;99.90;;;;;;5054629;28;20055;-91
2021/12/02 10:26:40;;;;;;;1.95;1.50;;;3.60;99.90;;;;;;5051388;28;20104;-91
2021/12/02 10:29:11;;;;;;;2.28;1.40;;;3.60;99.90;;;;;;5036509;28;20087;-91
2021/12/02 10:31:38;;;;;;;1.95;1.35;;;3.60;99.90;;;;;;5037139;28;20017;-92
2021/12/02 10:34:06;;;;;;;2.80;1.63;;;3.60;99.90;;;;;;5047049;28;20032;-91
2021/12/02 10:36:40;;;;;;;2.13;1.52;;;3.60;99.90;;;;;;5038612;28;20037;-92
2021/12/02 10:39:17;;;;;;;2.53;1.40;;;3.60;99.90;;;;;;5036630;28;20033;-91
2021/12/02 10:41:44;;;;;;;1.73;1.48;;;3.60;99.90;;;;;;5034333;28;20103;-91
2021/12/02 10:44:12;;;;;;;2.22;1.58;;;3.60;99.90;;;;;;5037103;28;20029;-91
2021/12/02 10:46:50;;;;;;;2.42;1.23;;;3.70;99.90;;;;;;5037016;28;20039;-91
2021/12/02 10:49:16;;;;;;;1.92;1.08;;;3.80;99.90;;;;;;5031886;28;20046;-92
2021/12/02 10:51:51;;;;;;;1.40;1.30;;;4.00;99.90;;;;;;5055960;28;20043;-92
2021/12/02 10:54:23;;;;;;;1.10;0.80;;;4.20;99.90;;;;;;5054593;28;20037;-91
2021/12/02 10:56:52;;;;;;;1.27;1.05;;;4.40;99.90;;;;;;5036809;28;20070;-91
2021/12/02 10:59:25;;;;;;;1.23;1.00;;;4.50;99.90;;;;;;5036511;28;20488;-91
2021/12/02 11:01:52;;;;;;;3.38;0.90;;;4.60;99.90;;;;;;5050343;28;20044;-93
2021/12/02 11:04:19;;;;;;;3.95;0.90;;;4.60;99.90;;;;;;5057343;28;20024;-92
2021/12/02 11:06:46;;;;;;;2.13;1.10;;;4.70;99.90;;;;;;5042218;28;20024;-91
2021/12/02 11:09:30;;;;;;;2.58;0.93;;;4.70;99.90;;;;;;5039177;28;20025;-91
2021/12/02 11:12:11;;;;;;;1.38;0.98;;;4.70;99.90;;;;;;5036682;28;20039;-92
2021/12/02 11:14:41;;;;;;;3.08;2.30;;;4.70;99.90;;;;;;5045583;28;20907;-91
2021/12/02 11:17:12;;;;;;;2.03;1.00;;;4.60;99.90;;;;;;5036091;28;20029;-91
2021/12/02 11:19:37;;;;;;;1.77;0.95;;;4.60;99.90;;;;;;5040836;28;20021;-90
2021/12/02 11:22:05;;;;;;;2.08;0.93;;;4.60;99.90;;;;;;5040232;28;20128;-91
2021/12/02 11:24:32;;;;;;;1.58;0.90;;;4.60;99.90;;;;;;5036342;28;20032;-91
2021/12/02 11:27:18;;;;;;;1.52;1.00;;;4.50;99.90;;;;;;5035534;28;20079;-90
2021/12/02 11:29:56;;;;;;;1.95;1.17;;;4.60;99.90;;;;;;5031191;28;20847;-91
2021/12/02 11:32:34;;;;;;;0.98;0.80;;;4.60;99.90;;;;;;5026042;28;20045;-91
2021/12/02 11:35:08;;;;;;;1.90;1.20;;;4.60;99.90;;;;;;5041383;28;20052;-91
2021/12/02 11:37:36;;;;;;;0.95;0.80;;;4.60;99.90;;;;;;5054511;28;20017;-90
2021/12/02 11:40:18;;;;;;;1.35;0.80;;;4.80;99.90;;;;;;5039211;28;20028;-90
2021/12/02 11:42:45;;;;;;;2.10;1.05;;;4.90;99.90;;;;;;5042558;28;20021;-90
2021/12/02 11:45:12;;;;;;;3.40;1.20;;;4.90;99.90;;;;;;5053749;28;20099;-91
2021/12/02 11:47:39;;;;;;;2.15;1.48;;;5.00;99.90;;;;;;5040479;28;20017;-91
2021/12/02 11:50:07;;;;;;;1.60;1.30;;;5.00;99.90;;;;;;5052281;28;20025;-91
2021/12/02 11:52:39;;;;;;;1.40;1.13;;;5.00;99.90;;;;;;5039051;28;20032;-90
2021/12/02 11:55:06;;;;;;;;;;;5.00;99.90;;;;;;5035259;28;20107;-90
2021/12/02 11:57:33;;;;;;;3.15;1.10;;;5.00;99.90;;;;;;5053006;28;19908;-90
2021/12/02 12:00:00;;;;;;;1.30;0.90;;;5.00;99.90;;;;;;5042478;28;20703;-90
2021/12/02 12:02:26;;;;;;;1.10;1.00;;;4.90;99.90;;;;;;5040178;28;20029;-90
2021/12/02 12:05:03;;;;;;;1.45;0.90;;;4.90;99.90;;;;;;5055232;28;20016;-90
2021/12/02 12:07:40;;;;;;;2.05;1.05;;;4.80;99.90;;;;;;5069589;28;20020;-90
2021/12/02 12:10:20;;;;;;;2.97;2.08;;;4.80;99.90;;;;;;5044563;28;20400;-92
2021/12/02 12:12:46;;;;;;;3.05;0.82;;;4.70;99.90;;;;;;5050445;28;20048;-92
2021/12/02 12:15:54;;;;;;;1.98;0.80;;;4.70;99.90;;;;;;5035035;28;20323;-91
2021/12/02 12:18:35;;;;;;;1.10;0.90;;;4.70;99.90;;;;;;5049860;28;20029;-91
2021/12/02 12:21:06;;;;;;;2.38;1.15;;;4.80;99.90;;;;;;5042656;28;20074;-91
2021/12/02 12:23:40;;;;;;;1.42;1.00;;;4.80;99.90;;;;;;5034852;28;20025;-91
2021/12/02 12:26:33;;;;;;;2.45;1.40;;;4.80;99.90;;;;;;5031518;28;20448;-89
2021/12/02 12:29:08;;;;;;;1.52;1.20;;;4.70;99.90;;;;;;5029569;28;20026;-91
2021/12/02 12:31:47;;;;;;;1.30;1.17;;;4.80;99.90;;;;;;5022594;28;20048;-90
2021/12/02 12:37:46;;;;;;;1.77;1.20;;;4.70;99.90;;;;;;5051786;28;20029;-91
2021/12/02 12:40:19;;;;;;;1.40;1.13;;;4.80;99.90;;;;;;5035151;28;20036;-91
2021/12/02 12:43:02;;;;;;;1.13;1.00;;;4.90;99.90;;;;;;5035215;28;20025;-91
2021/12/02 12:45:37;;;;;;;1.25;1.10;;;5.00;99.90;;;;;;5031531;28;20560;-90
2021/12/02 12:48:04;;;;;;;1.98;1.30;;;5.00;99.90;;;;;;5019952;28;20042;-91
2021/12/02 12:50:36;;;;;;;1.02;1.00;;;5.00;99.90;;;;;;5031289;28;20460;-92
2021/12/02 12:53:04;;;;;;;1.63;1.45;;;4.90;99.90;;;;;;5020183;28;20120;-91
2021/12/02 12:55:32;;;;;;;3.30;1.70;;;4.80;99.90;;;;;;5047921;28;20032;-91
2021/12/02 12:58:16;;;;;;;3.58;2.03;;;4.70;99.90;;;;;;5035371;28;20029;-93
2021/12/02 13:00:46;;;;;;;4.15;2.50;;;4.60;99.90;;;;;;5052964;28;20025;-91
2021/12/02 13:03:18;;;;;;;1.98;1.60;;;4.60;99.90;;;;;;5052089;28;20447;-93
2021/12/02 13:05:55;;;;;;;2.30;1.58;;;4.60;99.90;;;;;;5035074;28;20021;-92
2021/12/02 13:08:37;;;;;;;4.68;3.22;;;4.70;99.90;;;;;;5034342;28;20036;-92
2021/12/02 13:11:24;;;;;;;1.67;1.35;;;4.70;99.90;;;;;;5035674;28;20086;-92
2021/12/02 13:13:52;;;;;;;1.73;1.23;;;4.70;99.90;;;;;;5034480;28;20111;-92
2021/12/02 13:16:19;;;;;;;2.55;1.00;;;4.70;99.90;;;;;;5034700;28;20017;-91
2021/12/02 13:18:49;;;;;;;1.20;1.10;;;4.80;99.90;;;;;;5033789;28;20032;-91
2021/12/02 13:21:21;;;;;;;1.35;1.20;;;4.70;99.90;;;;;;5038878;28;20040;-91
2021/12/02 13:24:14;;;;;;;2.67;1.60;;;4.70;99.90;;;;;;5036301;28;20025;-91
2021/12/02 13:26:59;;;;;;;2.25;1.30;;;4.50;99.90;;;;;;5058069;28;20104;-91
2021/12/02 13:29:31;;;;;;;1.23;1.13;;;4.50;99.90;;;;;;5064221;28;20025;-91